Time;durP1;ratioP1;P1;durP2;ratioP2;P2;SDS_P1;SDS_P2;PMS_P1;PMS_P2;Temp;Humidity;BMP_temperature;BMP_pressure;BME280_temperature;BME280_humidity;BME280_pressure;Samples;Min_cycle;Max_cycle;Signal;HPM_P1;HPM_P2
2022/03/29 00:01:06;;;;;;;17.13;12.60;;;14.10;65.80;;;;;;5032306;28;20487;-66
2022/03/29 00:03:45;;;;;;;17.90;14.70;;;14.10;66.60;;;;;;5032220;28;20968;-67
2022/03/29 00:06:12;;;;;;;21.57;14.20;;;14.00;67.10;;;;;;5032276;28;20779;-66
2022/03/29 00:08:39;;;;;;;19.13;14.17;;;13.90;67.50;;;;;;5031931;28;20816;-64
2022/03/29 00:11:06;;;;;;;20.60;14.20;;;13.80;68.20;;;;;;5032130;28;20461;-67
2022/03/29 00:13:33;;;;;;;21.00;14.27;;;13.70;68.80;;;;;;5031913;28;20451;-66
2022/03/29 00:16:00;;;;;;;19.03;14.20;;;13.60;69.70;;;;;;5044054;28;20453;-67
2022/03/29 00:18:29;;;;;;;20.60;15.10;;;13.60;70.20;;;;;;5051773;28;20466;-66
2022/03/29 00:20:57;;;;;;;20.30;13.23;;;13.60;70.40;;;;;;5051433;28;20485;-67
2022/03/29 00:23:27;;;;;;;18.80;14.63;;;13.60;70.30;;;;;;5051382;28;20454;-66
2022/03/29 00:25:54;;;;;;;22.10;13.90;;;13.60;70.80;;;;;;5051963;28;20464;-67
2022/03/29 00:28:21;;;;;;;19.50;13.80;;;13.60;71.10;;;;;;5051602;28;20872;-66
2022/03/29 00:30:48;;;;;;;22.90;14.80;;;13.50;72.00;;;;;;5051889;28;20801;-66
2022/03/29 00:33:15;;;;;;;15.07;12.60;;;13.40;72.70;;;;;;5051732;28;20454;-66
2022/03/29 00:35:44;;;;;;;17.83;14.37;;;13.50;73.50;;;;;;5051787;28;20803;-66
2022/03/29 00:38:11;;;;;;;21.00;13.90;;;13.30;74.00;;;;;;5051299;28;20473;-66
2022/03/29 00:40:38;;;;;;;20.67;14.40;;;13.30;74.80;;;;;;5051334;28;20489;-66
2022/03/29 00:43:08;;;;;;;18.57;13.47;;;13.40;74.50;;;;;;5051692;28;20484;-67
2022/03/29 00:45:36;;;;;;;20.70;13.30;;;13.40;74.80;;;;;;5051326;28;20446;-65
2022/03/29 00:48:03;;;;;;;16.93;13.40;;;13.40;75.00;;;;;;5050858;28;20508;-67
2022/03/29 00:50:31;;;;;;;15.90;12.40;;;13.50;75.00;;;;;;5051192;28;20453;-67
2022/03/29 00:52:59;;;;;;;19.90;13.10;;;13.50;75.10;;;;;;5051156;28;20450;-66
2022/03/29 00:55:27;;;;;;;18.73;13.90;;;13.60;75.20;;;;;;5051302;28;20475;-66
2022/03/29 00:57:54;;;;;;;20.70;14.10;;;13.60;75.60;;;;;;5051232;28;20536;-66
2022/03/29 01:00:21;;;;;;;17.83;14.00;;;13.50;76.00;;;;;;5050436;28;21005;-67
2022/03/29 01:02:48;;;;;;;18.87;12.70;;;13.70;75.70;;;;;;5050784;28;20466;-67
2022/03/29 01:05:16;;;;;;;17.10;12.10;;;13.80;74.70;;;;;;5050969;28;20926;-67
2022/03/29 01:07:44;;;;;;;17.83;12.90;;;13.80;75.20;;;;;;5051059;28;20508;-66
2022/03/29 01:10:12;;;;;;;17.83;12.90;;;13.70;75.20;;;;;;5051000;28;20450;-67
2022/03/29 01:12:40;;;;;;;20.83;12.33;;;13.80;75.50;;;;;;5051094;28;21013;-66
2022/03/29 01:15:10;;;;;;;15.83;12.30;;;13.80;75.40;;;;;;5051299;28;20458;-66
2022/03/29 01:17:40;;;;;;;27.33;14.33;;;13.80;76.00;;;;;;5050749;28;20997;-66
2022/03/29 01:20:13;;;;;;;19.83;13.00;;;13.70;76.50;;;;;;5050376;28;20518;-66
2022/03/29 01:22:43;;;;;;;19.03;12.77;;;13.50;77.60;;;;;;5050324;28;20979;-66
2022/03/29 01:25:17;;;;;;;16.63;13.40;;;13.30;79.40;;;;;;5050543;28;20454;-66
2022/03/29 01:27:46;;;;;;;19.20;13.80;;;13.50;79.00;;;;;;5050270;28;20894;-66
2022/03/29 01:30:14;;;;;;;21.50;14.60;;;13.60;78.00;;;;;;5050365;28;20450;-67
2022/03/29 01:32:44;;;;;;;18.00;12.27;;;13.50;78.90;;;;;;5050590;28;20497;-67
2022/03/29 01:35:12;;;;;;;18.53;12.80;;;13.50;79.00;;;;;;5050519;28;20462;-66
2022/03/29 01:37:41;;;;;;;18.27;13.80;;;13.50;79.30;;;;;;5050438;28;20445;-67
2022/03/29 01:40:10;;;;;;;16.83;12.03;;;13.60;78.80;;;;;;5050186;28;21194;-67
2022/03/29 01:42:38;;;;;;;21.97;15.17;;;13.60;78.90;;;;;;5050188;28;20450;-66
2022/03/29 01:45:06;;;;;;;18.37;13.90;;;13.60;79.10;;;;;;5050134;28;20537;-65
2022/03/29 01:47:33;;;;;;;23.90;14.60;;;13.40;79.40;;;;;;5049986;28;20465;-66
2022/03/29 01:50:00;;;;;;;18.67;14.60;;;13.30;80.40;;;;;;5050185;28;20460;-66
2022/03/29 01:52:28;;;;;;;19.80;14.07;;;13.40;80.10;;;;;;5050000;28;20458;-66
2022/03/29 01:54:56;;;;;;;17.03;13.57;;;13.40;79.90;;;;;;5050051;28;20568;-67
2022/03/29 01:57:28;;;;;;;24.60;14.53;;;13.30;81.00;;;;;;5050119;28;20814;-66
2022/03/29 02:02:40;;;;;;;18.10;13.70;;;13.40;81.90;;;;;;5050154;28;20450;-66
2022/03/29 02:05:08;;;;;;;17.47;13.30;;;13.40;81.50;;;;;;5050031;28;20461;-66
2022/03/29 02:07:35;;;;;;;20.80;14.27;;;13.40;81.70;;;;;;5049461;28;20454;-67
2022/03/29 02:10:05;;;;;;;21.17;14.07;;;13.40;81.40;;;;;;5049377;28;20450;-67
2022/03/29 02:12:33;;;;;;;23.10;14.27;;;13.40;81.70;;;;;;5049245;28;20547;-67
2022/03/29 02:15:00;;;;;;;19.40;14.00;;;12.80;84.50;;;;;;5049456;28;20481;-66
2022/03/29 02:17:28;;;;;;;20.07;14.93;;;12.30;90.00;;;;;;5049713;28;20446;-66
2022/03/29 02:19:55;;;;;;;22.57;13.23;;;12.40;90.50;;;;;;5049542;28;20450;-66
2022/03/29 02:22:22;;;;;;;19.83;13.87;;;12.70;90.00;;;;;;5049124;28;20544;-67
2022/03/29 02:24:49;;;;;;;21.30;14.47;;;12.80;88.90;;;;;;5049530;28;20450;-65
2022/03/29 02:27:18;;;;;;;16.30;12.20;;;12.90;88.60;;;;;;5049628;28;20461;-65
2022/03/29 02:29:45;;;;;;;17.33;13.10;;;12.90;88.50;;;;;;5049610;28;20464;-66
2022/03/29 02:32:12;;;;;;;20.70;13.67;;;12.90;88.20;;;;;;5049634;28;21009;-68
2022/03/29 02:34:39;;;;;;;19.43;12.70;;;12.80;89.60;;;;;;5049219;28;20457;-66
2022/03/29 02:37:06;;;;;;;18.17;14.37;;;12.80;89.60;;;;;;5048924;28;20966;-67
2022/03/29 02:39:34;;;;;;;15.57;13.00;;;12.90;87.70;;;;;;5049016;28;20981;-67
2022/03/29 02:42:01;;;;;;;16.87;13.70;;;13.00;86.60;;;;;;5049587;28;20587;-66
2022/03/29 02:44:29;;;;;;;18.80;13.07;;;13.00;86.90;;;;;;5049258;28;20461;-65
2022/03/29 02:46:57;;;;;;;20.17;15.50;;;13.00;86.70;;;;;;5048993;28;20535;-66
2022/03/29 02:49:24;;;;;;;21.23;14.20;;;13.00;87.10;;;;;;5048507;28;20497;-67
2022/03/29 02:51:52;;;;;;;19.90;14.10;;;12.90;87.00;;;;;;5049310;28;20458;-66
2022/03/29 02:54:20;;;;;;;19.50;13.33;;;12.90;87.90;;;;;;5049151;28;20925;-67
2022/03/29 02:56:47;;;;;;;18.70;14.80;;;12.90;87.80;;;;;;5049260;28;20503;-67
2022/03/29 02:59:16;;;;;;;17.33;14.43;;;12.90;87.90;;;;;;5048532;28;20986;-66
2022/03/29 03:01:44;;;;;;;19.27;13.63;;;12.90;87.70;;;;;;5049282;28;20494;-67
2022/03/29 03:04:13;;;;;;;23.43;15.17;;;12.90;87.90;;;;;;5048801;28;20487;-66
2022/03/29 03:06:40;;;;;;;20.07;14.93;;;12.90;87.90;;;;;;5048779;28;20531;-66
2022/03/29 03:09:08;;;;;;;18.00;14.00;;;12.90;87.50;;;;;;5048934;28;21047;-66
2022/03/29 03:11:36;;;;;;;21.17;13.90;;;12.70;88.10;;;;;;5049117;28;20454;-67
2022/03/29 03:14:03;;;;;;;19.03;13.50;;;12.50;90.10;;;;;;5048586;28;20559;-66
2022/03/29 03:16:30;;;;;;;19.70;13.53;;;12.20;91.80;;;;;;5048795;28;20454;-66
2022/03/29 03:18:59;;;;;;;20.57;13.03;;;12.30;91.40;;;;;;5048959;28;20820;-66
2022/03/29 03:21:26;;;;;;;18.37;14.40;;;12.50;90.90;;;;;;5048773;28;20485;-67
2022/03/29 03:23:54;;;;;;;17.80;13.37;;;12.40;91.00;;;;;;5053091;28;20486;-66
2022/03/29 03:26:21;;;;;;;18.13;13.00;;;12.30;91.50;;;;;;5053090;28;20461;-66
2022/03/29 03:28:48;;;;;;;23.60;16.03;;;12.20;91.70;;;;;;5052559;28;20477;-67
2022/03/29 03:31:15;;;;;;;19.30;15.50;;;12.20;92.00;;;;;;5052749;28;20446;-67
2022/03/29 03:33:45;;;;;;;26.60;15.40;;;12.10;91.80;;;;;;5053177;28;20962;-66
2022/03/29 03:36:13;;;;;;;18.03;14.33;;;12.10;92.10;;;;;;5052449;28;20485;-66
2022/03/29 03:38:41;;;;;;;20.60;13.47;;;12.00;91.70;;;;;;5052725;28;20474;-66
2022/03/29 03:41:08;;;;;;;21.87;13.87;;;12.10;91.40;;;;;;5052593;28;20820;-66
2022/03/29 03:43:35;;;;;;;21.67;16.27;;;12.10;91.50;;;;;;5052408;28;20942;-66
2022/03/29 03:46:02;;;;;;;20.40;15.37;;;12.00;91.40;;;;;;5052537;28;20514;-66
2022/03/29 03:48:29;;;;;;;24.87;17.03;;;11.90;91.80;;;;;;5051654;28;20489;-65
2022/03/29 03:50:56;;;;;;;17.67;14.13;;;11.90;92.20;;;;;;5052478;28;20453;-67
2022/03/29 03:53:25;;;;;;;19.00;14.83;;;12.00;92.00;;;;;;5052310;28;20457;-66
2022/03/29 03:55:52;;;;;;;19.80;16.23;;;12.00;92.00;;;;;;5052440;28;20457;-66
2022/03/29 03:58:19;;;;;;;18.30;14.23;;;11.90;92.50;;;;;;5051889;28;20481;-67
2022/03/29 04:00:46;;;;;;;24.23;14.33;;;11.70;93.50;;;;;;5052169;28;20457;-66
2022/03/29 04:03:13;;;;;;;22.30;14.70;;;11.80;93.60;;;;;;5052423;28;20930;-66
2022/03/29 04:05:40;;;;;;;27.33;14.17;;;11.70;93.70;;;;;;5052332;28;20832;-66
2022/03/29 04:08:08;;;;;;;22.03;13.87;;;11.80;93.60;;;;;;5052368;28;20988;-67
2022/03/29 04:10:37;;;;;;;18.00;14.70;;;11.90;93.30;;;;;;5052089;28;20477;-67
2022/03/29 04:13:04;;;;;;;21.40;14.40;;;11.90;93.00;;;;;;5051964;28;20552;-68
2022/03/29 04:15:32;;;;;;;21.87;14.60;;;11.80;93.60;;;;;;5052252;28;20942;-66
2022/03/29 04:18:00;;;;;;;23.30;14.40;;;11.80;93.70;;;;;;5052331;28;20727;-66
2022/03/29 04:20:27;;;;;;;20.27;14.50;;;11.80;94.00;;;;;;5051444;28;20458;-66
2022/03/29 04:22:55;;;;;;;18.10;13.40;;;11.80;93.90;;;;;;5051582;28;20489;-66
2022/03/29 04:25:22;;;;;;;26.43;14.17;;;11.90;93.90;;;;;;5051787;28;20453;-66
2022/03/29 04:27:51;;;;;;;22.57;15.80;;;11.90;93.80;;;;;;5051802;28;20470;-67
2022/03/29 04:30:18;;;;;;;22.83;14.20;;;11.90;94.00;;;;;;5052219;28;20454;-66
2022/03/29 04:32:45;;;;;;;19.27;14.40;;;11.90;94.20;;;;;;5051875;28;20457;-67
2022/03/29 04:35:12;;;;;;;24.63;15.80;;;12.00;93.80;;;;;;5050640;28;20450;-67
2022/03/29 04:37:39;;;;;;;21.30;15.97;;;11.90;94.00;;;;;;5051261;28;20535;-66
2022/03/29 04:40:09;;;;;;;26.40;15.50;;;11.90;94.10;;;;;;5051687;28;20476;-66
2022/03/29 04:42:43;;;;;;;24.50;17.23;;;11.90;94.10;;;;;;5051352;28;20539;-66
2022/03/29 04:45:12;;;;;;;26.53;16.30;;;11.80;94.80;;;;;;5051609;28;20488;-66
2022/03/29 04:47:40;;;;;;;24.20;16.40;;;11.80;95.30;;;;;;5051211;28;20438;-65
2022/03/29 04:50:08;;;;;;;24.47;16.37;;;11.90;95.00;;;;;;5051408;28;20454;-66
2022/03/29 04:52:36;;;;;;;28.60;16.93;;;11.80;95.10;;;;;;5051419;28;20446;-66
2022/03/29 04:55:04;;;;;;;27.50;15.60;;;11.80;95.20;;;;;;5051553;28;20505;-66
2022/03/29 04:57:32;;;;;;;20.33;15.07;;;11.90;95.00;;;;;;5051298;28;20442;-66
2022/03/29 04:59:59;;;;;;;27.93;17.57;;;12.00;94.90;;;;;;5050683;28;20492;-66
2022/03/29 05:02:28;;;;;;;27.83;16.10;;;12.10;94.60;;;;;;5050951;28;20494;-66
2022/03/29 05:04:55;;;;;;;33.50;17.90;;;12.20;94.10;;;;;;5050942;28;20935;-66
2022/03/29 05:07:25;;;;;;;25.40;16.60;;;12.30;93.90;;;;;;5051383;28;20779;-67
2022/03/29 05:09:54;;;;;;;24.97;17.03;;;12.20;94.30;;;;;;5051171;28;20454;-67
2022/03/29 05:12:21;;;;;;;32.20;18.83;;;12.00;94.80;;;;;;5050659;28;20949;-67
2022/03/29 05:14:49;;;;;;;24.63;16.70;;;12.10;94.50;;;;;;5051082;28;20464;-69
2022/03/29 05:17:16;;;;;;;31.83;17.00;;;12.20;94.90;;;;;;5050879;28;20462;-68
2022/03/29 05:19:44;;;;;;;27.87;17.87;;;12.20;94.70;;;;;;5050681;28;20474;-67
2022/03/29 05:22:12;;;;;;;31.07;18.57;;;12.30;93.90;;;;;;5050073;28;20496;-67
2022/03/29 05:24:39;;;;;;;27.93;19.40;;;12.40;93.00;;;;;;5050921;28;20818;-69
2022/03/29 05:27:06;;;;;;;37.03;21.03;;;12.40;92.30;;;;;;5050672;28;20496;-66
2022/03/29 05:29:33;;;;;;;31.30;17.73;;;12.50;91.60;;;;;;5050511;28;20482;-66
2022/03/29 05:32:00;;;;;;;32.50;18.40;;;12.60;91.90;;;;;;5050420;28;20552;-65
2022/03/29 05:34:30;;;;;;;37.53;19.80;;;12.60;91.70;;;;;;5049992;28;20454;-66
2022/03/29 05:36:59;;;;;;;29.43;19.17;;;12.60;91.10;;;;;;5050588;28;20445;-66
2022/03/29 05:39:26;;;;;;;36.37;21.70;;;12.80;90.60;;;;;;5050508;28;20478;-66
2022/03/29 05:41:53;;;;;;;29.93;20.07;;;12.70;90.40;;;;;;5050109;28;20493;-65
2022/03/29 05:44:22;;;;;;;27.53;17.90;;;12.60;90.70;;;;;;5050465;28;20454;-66
2022/03/29 05:49:33;;;;;;;26.57;17.67;;;12.60;90.20;;;;;;5049446;28;20963;-67
2022/03/29 05:52:02;;;;;;;22.53;16.90;;;12.70;89.60;;;;;;5050065;28;20469;-68
2022/03/29 05:54:30;;;;;;;35.90;18.77;;;12.80;89.40;;;;;;5050084;28;21179;-68
2022/03/29 05:56:57;;;;;;;50.60;20.87;;;12.90;88.20;;;;;;5049980;28;20465;-72
2022/03/29 05:59:24;;;;;;;23.93;15.90;;;13.00;87.60;;;;;;5050667;28;20470;-74
2022/03/29 06:01:51;;;;;;;35.00;18.77;;;13.00;86.80;;;;;;5049740;28;20580;-71
2022/03/29 06:04:22;;;;;;;28.10;17.50;;;13.00;86.80;;;;;;5050466;28;20461;-70
2022/03/29 06:06:50;;;;;;;34.90;19.40;;;13.00;86.80;;;;;;5050086;28;20446;-72
2022/03/29 06:09:18;;;;;;;26.83;18.60;;;13.10;86.00;;;;;;5049667;28;20474;-73
2022/03/29 06:11:47;;;;;;;27.03;19.40;;;13.10;86.20;;;;;;5049671;28;20450;-71
2022/03/29 06:14:16;;;;;;;34.83;19.20;;;13.00;86.60;;;;;;5049697;28;20464;-71
2022/03/29 06:16:43;;;;;;;27.10;19.50;;;13.10;86.30;;;;;;5049937;28;20486;-69
2022/03/29 06:19:10;;;;;;;33.57;18.60;;;13.10;86.60;;;;;;5049516;28;20473;-67
2022/03/29 06:21:39;;;;;;;26.00;18.10;;;13.10;87.30;;;;;;5049356;28;20584;-70
2022/03/29 06:24:07;;;;;;;28.10;17.90;;;13.00;86.70;;;;;;5049390;28;20450;-69
2022/03/29 06:26:37;;;;;;;26.77;18.60;;;13.20;86.40;;;;;;5049435;28;20843;-72
2022/03/29 06:29:04;;;;;;;34.07;20.47;;;13.20;86.80;;;;;;5049372;28;20481;-73
2022/03/29 06:31:34;;;;;;;25.10;16.10;;;13.10;87.90;;;;;;5049584;28;20492;-69
2022/03/29 06:34:02;;;;;;;24.13;17.70;;;13.40;85.90;;;;;;5048918;28;20458;-72
2022/03/29 06:36:29;;;;;;;31.87;18.43;;;13.50;85.00;;;;;;5049276;28;20454;-74
2022/03/29 06:38:56;;;;;;;25.20;17.47;;;13.60;84.70;;;;;;5049080;28;20477;-73
2022/03/29 06:41:24;;;;;;;26.67;19.00;;;13.70;84.90;;;;;;5049117;28;20555;-73
2022/03/29 06:43:52;;;;;;;27.63;17.83;;;13.90;85.00;;;;;;5048965;28;20454;-72
2022/03/29 06:46:19;;;;;;;25.23;18.47;;;14.10;83.70;;;;;;5049016;28;20796;-72
2022/03/29 06:48:46;;;;;;;26.60;17.87;;;14.20;82.30;;;;;;5048457;28;20857;-71
2022/03/29 06:51:14;;;;;;;23.97;17.03;;;14.30;82.60;;;;;;5049234;28;20458;-71
2022/03/29 06:53:42;;;;;;;27.83;19.00;;;14.40;81.40;;;;;;5048955;28;20822;-69
2022/03/29 06:56:10;;;;;;;23.13;18.17;;;14.70;80.30;;;;;;5048803;28;20502;-71
2022/03/29 06:58:37;;;;;;;24.97;18.23;;;14.80;80.20;;;;;;5048869;28;20482;-68
2022/03/29 07:01:06;;;;;;;28.30;17.10;;;15.00;79.20;;;;;;5047597;28;20545;-71
2022/03/29 07:03:35;;;;;;;24.13;17.07;;;15.00;79.60;;;;;;5048510;28;20534;-67
2022/03/29 07:06:03;;;;;;;23.97;17.33;;;15.10;78.70;;;;;;5049118;28;20476;-68
2022/03/29 07:08:31;;;;;;;27.13;18.50;;;15.20;78.60;;;;;;5048923;28;20987;-67
2022/03/29 07:13:44;;;;;;;23.53;16.70;;;15.60;76.40;;;;;;5048637;28;20512;-66
2022/03/29 07:16:14;;;;;;;21.40;17.23;;;15.50;75.80;;;;;;5048677;28;20946;-66
2022/03/29 07:18:41;;;;;;;22.77;15.90;;;15.40;75.60;;;;;;5048720;28;20474;-67
2022/03/29 07:21:10;;;;;;;21.40;17.47;;;15.60;75.10;;;;;;5048571;28;20454;-66
2022/03/29 07:23:37;;;;;;;21.70;15.80;;;15.60;75.00;;;;;;5048770;28;20489;-66
2022/03/29 07:26:04;;;;;;;26.20;16.63;;;15.80;74.20;;;;;;5048833;28;20454;-66
2022/03/29 07:28:32;;;;;;;22.77;16.20;;;16.00;73.80;;;;;;5048317;28;20988;-67
2022/03/29 07:30:59;;;;;;;25.53;16.90;;;16.00;72.60;;;;;;5048612;28;21001;-67
2022/03/29 07:33:27;;;;;;;24.00;17.47;;;16.20;71.80;;;;;;5048069;28;20454;-67
2022/03/29 07:35:55;;;;;;;21.63;15.40;;;16.30;71.60;;;;;;5048610;28;20454;-68
2022/03/29 07:38:23;;;;;;;22.70;16.47;;;16.60;71.10;;;;;;5048609;28;20978;-67
2022/03/29 07:40:50;;;;;;;20.50;15.30;;;16.60;69.70;;;;;;5048396;28;20493;-67
2022/03/29 07:43:18;;;;;;;18.40;15.50;;;16.80;69.80;;;;;;5048401;28;20493;-68
2022/03/29 07:45:45;;;;;;;19.93;14.77;;;17.00;69.20;;;;;;5048545;28;20477;-68
2022/03/29 07:48:12;;;;;;;19.23;15.03;;;17.10;68.90;;;;;;5048200;28;20535;-68
2022/03/29 07:50:41;;;;;;;19.90;15.03;;;17.40;67.80;;;;;;5048833;28;20476;-68
2022/03/29 07:53:09;;;;;;;18.80;13.13;;;17.40;66.30;;;;;;5048717;28;20462;-68
2022/03/29 07:55:39;;;;;;;17.93;13.80;;;17.60;65.70;;;;;;5048385;28;20977;-68
2022/03/29 07:58:06;;;;;;;17.93;13.23;;;17.80;64.10;;;;;;5048624;28;20496;-68
2022/03/29 08:00:35;;;;;;;22.10;12.23;;;17.70;62.80;;;;;;5048580;28;20456;-67
2022/03/29 08:03:07;;;;;;;21.03;15.23;;;17.80;61.70;;;;;;5048710;28;20989;-68
2022/03/29 08:05:35;;;;;;;15.57;12.67;;;17.80;61.80;;;;;;5048494;28;20806;-68
2022/03/29 08:08:05;;;;;;;14.50;12.00;;;17.70;61.80;;;;;;5048530;28;20476;-68
2022/03/29 08:10:38;;;;;;;15.93;12.70;;;17.80;61.90;;;;;;5051806;28;20468;-68
2022/03/29 08:13:08;;;;;;;15.30;12.30;;;17.90;61.20;;;;;;5052122;28;20452;-68
2022/03/29 08:15:36;;;;;;;19.03;13.20;;;18.00;60.60;;;;;;5051661;28;20460;-69
2022/03/29 08:18:03;;;;;;;15.87;12.47;;;18.10;60.40;;;;;;5052204;28;20741;-68
2022/03/29 08:20:31;;;;;;;18.57;12.57;;;18.30;60.00;;;;;;5051884;28;20507;-69
2022/03/29 08:23:03;;;;;;;20.73;12.77;;;18.50;60.20;;;;;;5051417;28;20860;-68
2022/03/29 08:25:32;;;;;;;21.30;12.20;;;18.80;59.20;;;;;;5051850;28;20480;-67
2022/03/29 08:28:00;;;;;;;16.33;11.70;;;18.90;58.20;;;;;;5052278;28;20501;-68
2022/03/29 08:30:29;;;;;;;12.93;9.73;;;18.80;57.80;;;;;;5052246;28;20547;-69
2022/03/29 08:32:57;;;;;;;15.20;10.47;;;18.80;57.00;;;;;;5051707;28;20454;-67
2022/03/29 08:35:25;;;;;;;11.47;8.80;;;18.80;56.50;;;;;;5051866;28;20474;-68
2022/03/29 08:37:52;;;;;;;20.10;12.40;;;18.90;56.30;;;;;;5051985;28;20458;-68
2022/03/29 08:40:26;;;;;;;17.10;10.73;;;18.90;56.40;;;;;;5051817;28;20462;-70
2022/03/29 08:42:56;;;;;;;23.40;10.60;;;19.00;56.30;;;;;;5051883;28;20509;-69
2022/03/29 08:45:27;;;;;;;17.67;11.20;;;19.10;56.00;;;;;;5051326;28;20474;-69
2022/03/29 08:47:56;;;;;;;17.43;11.17;;;19.30;56.10;;;;;;5051262;28;20493;-68
2022/03/29 08:50:29;;;;;;;17.00;10.27;;;19.30;56.40;;;;;;5051439;28;20553;-68
2022/03/29 08:52:57;;;;;;;15.00;9.60;;;19.80;56.40;;;;;;5051192;28;20954;-67
2022/03/29 08:55:26;;;;;;;18.90;10.67;;;19.80;54.00;;;;;;5051212;28;21038;-68
2022/03/29 08:57:55;;;;;;;15.13;10.17;;;19.00;54.60;;;;;;5051296;28;20458;-68
2022/03/29 09:00:23;;;;;;;16.60;11.10;;;19.00;55.70;;;;;;5051027;28;20454;-66
2022/03/29 09:02:53;;;;;;;16.50;10.47;;;19.30;55.70;;;;;;5051140;28;20576;-67
2022/03/29 09:05:26;;;;;;;16.30;10.00;;;19.80;54.80;;;;;;5050664;28;20458;-68
2022/03/29 09:07:55;;;;;;;16.40;10.30;;;20.10;54.00;;;;;;5051202;28;20461;-68
2022/03/29 09:10:39;;;;;;;18.90;11.00;;;19.90;53.50;;;;;;5051016;28;20457;-67
2022/03/29 09:13:18;;;;;;;15.43;9.00;;;19.90;53.80;;;;;;5050944;28;20493;-67
2022/03/29 09:15:47;;;;;;;13.50;9.53;;;19.70;53.50;;;;;;5051078;28;20473;-68
2022/03/29 09:18:16;;;;;;;14.73;9.93;;;20.10;53.50;;;;;;5050724;28;20446;-68
2022/03/29 09:20:45;;;;;;;14.77;9.67;;;20.40;52.90;;;;;;5050248;28;20970;-67
2022/03/29 09:23:14;;;;;;;17.67;9.60;;;20.70;52.60;;;;;;5050581;28;20580;-68
2022/03/29 09:25:47;;;;;;;14.27;8.97;;;20.90;51.60;;;;;;5050620;28;21041;-68
2022/03/29 09:28:17;;;;;;;12.63;9.20;;;21.20;51.10;;;;;;5051257;28;20462;-67
2022/03/29 09:30:45;;;;;;;15.10;9.70;;;21.00;50.60;;;;;;5050962;28;20475;-69
2022/03/29 09:33:14;;;;;;;14.73;8.83;;;21.00;51.20;;;;;;5050873;28;20447;-67
2022/03/29 09:35:59;;;;;;;16.40;9.83;;;21.00;50.20;;;;;;5050519;28;20481;-69
2022/03/29 09:38:36;;;;;;;18.60;8.67;;;20.80;49.50;;;;;;5050417;28;20454;-69
2022/03/29 09:41:04;;;;;;;19.47;9.63;;;20.50;49.60;;;;;;5050903;28;20469;-72
2022/03/29 09:43:36;;;;;;;14.23;8.37;;;20.10;50.00;;;;;;5050748;28;20488;-71
2022/03/29 09:46:04;;;;;;;13.73;8.63;;;19.90;50.00;;;;;;5050281;28;20482;-71
2022/03/29 09:48:41;;;;;;;14.93;9.20;;;19.90;50.50;;;;;;5049742;28;20474;-70
2022/03/29 09:51:27;;;;;;;16.80;7.87;;;20.30;50.60;;;;;;5050036;28;20449;-70
2022/03/29 09:53:58;;;;;;;17.57;9.13;;;20.40;49.40;;;;;;5050007;28;20446;-70
2022/03/29 09:56:30;;;;;;;15.83;10.20;;;20.40;49.50;;;;;;5049663;28;20969;-71
2022/03/29 09:59:10;;;;;;;17.97;7.90;;;20.60;49.60;;;;;;5050204;28;20478;-71
2022/03/29 10:01:52;;;;;;;16.03;8.03;;;21.20;49.90;;;;;;5049926;28;20454;-72
2022/03/29 10:04:20;;;;;;;13.60;7.97;;;21.70;49.00;;;;;;5049709;28;20585;-71
2022/03/29 10:06:49;;;;;;;13.50;7.80;;;22.00;47.50;;;;;;5049526;28;20489;-69
2022/03/29 10:09:32;;;;;;;14.43;7.87;;;22.30;45.90;;;;;;5049833;28;20470;-68
2022/03/29 10:12:03;;;;;;;15.63;7.63;;;22.40;46.00;;;;;;5050042;28;20565;-69
2022/03/29 10:14:34;;;;;;;15.53;9.10;;;22.00;45.40;;;;;;5049949;28;20486;-70
2022/03/29 10:17:02;;;;;;;19.80;7.90;;;21.90;45.70;;;;;;5049811;28;20453;-68
2022/03/29 10:19:29;;;;;;;15.40;8.37;;;21.70;45.70;;;;;;5049631;28;20539;-69
2022/03/29 10:21:58;;;;;;;12.23;8.10;;;21.10;46.50;;;;;;5049426;28;20465;-69
2022/03/29 10:24:29;;;;;;;16.20;8.80;;;21.10;46.80;;;;;;5049119;28;21013;-70
2022/03/29 10:26:59;;;;;;;15.27;9.70;;;21.10;47.60;;;;;;5049143;28;20872;-68
2022/03/29 10:29:30;;;;;;;14.93;7.00;;;21.00;46.40;;;;;;5049261;28;20473;-70
2022/03/29 10:32:01;;;;;;;12.50;7.17;;;20.70;46.80;;;;;;5048739;28;20600;-69
2022/03/29 10:34:31;;;;;;;20.60;8.20;;;20.40;47.50;;;;;;5049191;28;20817;-71
2022/03/29 10:37:07;;;;;;;12.10;8.20;;;20.40;47.90;;;;;;5049434;28;20449;-70
2022/03/29 10:39:48;;;;;;;15.50;7.23;;;20.40;48.40;;;;;;5049324;28;20543;-70
2022/03/29 10:42:49;;;;;;;13.63;7.03;;;20.60;48.10;;;;;;5049336;28;21017;-70
2022/03/29 10:45:21;;;;;;;19.47;8.40;;;20.60;47.40;;;;;;5041420;28;20458;-69
2022/03/29 10:48:12;;;;;;;12.57;7.53;;;20.00;46.70;;;;;;5048991;28;20497;-68
2022/03/29 10:51:02;;;;;;;12.93;7.03;;;20.00;46.90;;;;;;5049190;28;20457;-69
2022/03/29 10:53:35;;;;;;;11.10;6.50;;;20.00;46.40;;;;;;5049073;28;20450;-70
2022/03/29 10:56:26;;;;;;;14.37;7.43;;;20.00;46.30;;;;;;5048830;28;20485;-72
2022/03/29 10:59:15;;;;;;;15.50;7.73;;;20.30;46.60;;;;;;5048696;28;20478;-68
2022/03/29 11:01:43;;;;;;;17.50;6.90;;;20.70;46.30;;;;;;5049155;28;20490;-70
2022/03/29 11:04:23;;;;;;;17.07;6.40;;;21.10;45.40;;;;;;5049037;28;20532;-71
2022/03/29 11:07:14;;;;;;;15.93;6.70;;;21.70;44.90;;;;;;5048983;28;20457;-71
2022/03/29 11:09:44;;;;;;;16.03;6.90;;;21.80;44.40;;;;;;5048800;28;20482;-70
2022/03/29 11:12:37;;;;;;;15.87;6.93;;;21.90;44.60;;;;;;5048825;28;20458;-69
2022/03/29 11:15:40;;;;;;;21.53;9.27;;;22.30;44.20;;;;;;5049225;28;20523;-67
2022/03/29 11:18:38;;;;;;;17.33;7.60;;;22.30;42.90;;;;;;5048747;28;20477;-66
2022/03/29 11:21:07;;;;;;;16.13;6.60;;;21.70;43.10;;;;;;5049013;28;20457;-67
2022/03/29 11:23:36;;;;;;;22.90;6.10;;;21.20;43.30;;;;;;5048765;28;20921;-67
2022/03/29 11:26:10;;;;;;;15.93;5.80;;;21.30;43.50;;;;;;5048878;28;20930;-68
2022/03/29 11:28:46;;;;;;;16.20;5.90;;;21.10;43.30;;;;;;5048196;28;20535;-69
2022/03/29 11:31:13;;;;;;;15.93;5.60;;;20.80;44.00;;;;;;5048701;28;20548;-68
2022/03/29 11:33:41;;;;;;;11.60;5.40;;;20.70;43.90;;;;;;5048718;28;20549;-69
2022/03/29 11:36:11;;;;;;;13.03;5.17;;;20.60;44.40;;;;;;5048653;28;20458;-69
2022/03/29 11:38:38;;;;;;;11.97;5.20;;;20.60;44.20;;;;;;5048420;28;20473;-67
2022/03/29 11:41:06;;;;;;;12.10;6.47;;;20.50;44.10;;;;;;5048543;28;20454;-68
2022/03/29 11:43:33;;;;;;;14.30;6.50;;;20.50;44.30;;;;;;5050713;28;20887;-68
2022/03/29 11:46:01;;;;;;;10.67;5.30;;;20.50;44.10;;;;;;5052168;28;20489;-67
2022/03/29 11:48:28;;;;;;;13.93;5.30;;;20.70;44.30;;;;;;5052312;28;20840;-68
2022/03/29 11:50:57;;;;;;;16.97;5.43;;;20.90;44.60;;;;;;5052406;28;20926;-68
2022/03/29 11:53:28;;;;;;;14.57;5.93;;;20.90;43.70;;;;;;5052483;28;20446;-71
2022/03/29 11:56:01;;;;;;;10.37;5.70;;;21.10;44.20;;;;;;5052596;28;20453;-67
2022/03/29 11:58:31;;;;;;;9.87;4.97;;;21.40;44.20;;;;;;5051974;28;20482;-68
2022/03/29 12:01:03;;;;;;;14.10;5.33;;;21.40;42.80;;;;;;5052564;28;20547;-69
2022/03/29 12:03:36;;;;;;;12.83;6.07;;;22.00;42.80;;;;;;5052207;28;20484;-67
2022/03/29 12:06:13;;;;;;;16.07;8.00;;;22.60;42.50;;;;;;5051880;28;20450;-67
2022/03/29 12:08:51;;;;;;;15.10;5.90;;;23.00;41.10;;;;;;5052103;28;20547;-69
2022/03/29 12:11:23;;;;;;;11.53;5.90;;;23.40;41.60;;;;;;5052212;28;20487;-69
2022/03/29 12:14:01;;;;;;;10.20;5.37;;;23.80;40.80;;;;;;5051958;28;20588;-70
2022/03/29 12:16:30;;;;;;;13.30;5.90;;;24.00;39.50;;;;;;5052108;28;20536;-67
2022/03/29 12:18:58;;;;;;;11.70;5.33;;;24.10;39.20;;;;;;5052190;28;20829;-69
2022/03/29 12:21:26;;;;;;;11.50;6.13;;;24.30;38.70;;;;;;5051523;28;20450;-67
2022/03/29 12:24:04;;;;;;;12.40;6.60;;;24.10;39.60;;;;;;5051940;28;20513;-68
2022/03/29 12:26:36;;;;;;;12.77;8.07;;;24.40;39.70;;;;;;5051909;28;20640;-67
2022/03/29 12:29:06;;;;;;;9.43;5.60;;;24.80;39.30;;;;;;5051505;28;20978;-68
2022/03/29 12:31:36;;;;;;;9.70;5.53;;;24.90;38.50;;;;;;5051858;28;20548;-67
2022/03/29 12:34:04;;;;;;;12.43;5.60;;;24.70;38.70;;;;;;5051869;28;20930;-67
2022/03/29 12:36:31;;;;;;;11.20;5.70;;;24.90;39.10;;;;;;5051999;28;20461;-66
2022/03/29 12:39:05;;;;;;;14.67;5.97;;;24.90;38.30;;;;;;5051429;28;20474;-68
2022/03/29 12:41:35;;;;;;;9.17;5.50;;;25.00;38.30;;;;;;5051843;28;20840;-68
2022/03/29 12:44:03;;;;;;;9.13;5.30;;;24.80;39.30;;;;;;5051053;28;20568;-67
2022/03/29 12:46:31;;;;;;;10.83;5.77;;;24.20;39.00;;;;;;5051339;28;20787;-68
2022/03/29 12:48:58;;;;;;;11.80;6.07;;;24.40;39.50;;;;;;5050333;28;20580;-67
2022/03/29 12:51:28;;;;;;;17.50;5.80;;;24.00;38.40;;;;;;5050665;28;20477;-66